VMMC/MFM METAR and TAF weather

Enter ICAO airport designator
Station Type Date Time Source
VMMC METAR 2020/09/20 08:00 UTC NOAA

VMMC 200800Z 14006KT 9999 FEW022 30/26 Q1009 NOSIG


Station Type Date Time Source
VMMC Decoded METAR 2020/09/20 08:00 UTC NOAA

Taipa, Macau (VMMC) 22-10N 113-34E
Sep 20, 2020 - 04:00 AM EDT / 2020.09.20 0800 UTC
Wind: from the SE (140 degrees) at 7 MPH (6 KT):0
Visibility: greater than 7 mile(s):0
Sky conditions: mostly clear
Temperature: 86 F (30 C)
Heat index: 99.3 F (37.4 C):1
Dew Point: 78 F (26 C)
Relative Humidity: 79%
Pressure (altimeter): 29.80 in. Hg (1009 hPa)
ob: VMMC 200800Z 14006KT 9999 FEW022 30/26 Q1009 NOSIG
cycle: 8

Station Type Date Time Source
VMMC TAF 2020/09/20 06:21 UTC NOAA

TAF VMMC 200500Z 2006/2112 13008KT 9999 FEW020 SCT030
TEMPO 2006/2010 4000 SHRA FEW010CB SCT020

Example: see airport list